MMPB/PBC METAR and TAF weather

Enter ICAO airport designator
Station Type Date Time Source
MMPB METAR 2019/06/18 16:43 UTC NOAA

MMPB 181643Z 14010KT 8SM FEW020 FEW120 SCT220 22/11 A3035 RMK 8/132 HZY RTS


Station Type Date Time Source
MMPB Decoded METAR 2019/06/18 16:43 UTC NOAA

Puebla, Pue., Mexico (MMPB) 19-03N 098-10W
Jun 18, 2019 - 12:43 PM EDT / 2019.06.18 1643 UTC
Wind: from the SE (140 degrees) at 12 MPH (10 KT):0
Visibility: 8 mile(s):0
Sky conditions: partly cloudy
Temperature: 71 F (22 C)
Dew Point: 51 F (11 C)
Relative Humidity: 49%
Pressure (altimeter): 30.35 in. Hg (1027 hPa)
ob: MMPB 181643Z 14010KT 8SM FEW020 FEW120 SCT220 22/11 A3035 RMK 8/132 HZY RTS
cycle: 16

Station Type Date Time Source
MMPB TAF 2019/06/18 18:43 UTC NOAA

TAF MMPB 181636Z 1818/1918 18010KT P6SM SCT025 BKN250
FM182100 14012KT P6SM BKN025
FM182300 14010KT 5SM VC RA BKN020CB OVC200 PROB40 1900/1904 3SM TSRA
FM190400 00000KT P6SM SCT015 BKN080
FM191200 00000KT 3SM BR BKN010
FM191400 00000KT 6SM HZ SCT015 BKN200

Example: see airport list